Terminal Aerodrome Forecast
Issued by NWS

Current Version | Previous Version | Text Only | Print | Product List | Glossary On
Versions: 1 2 3 4 5 6 7 8 9 10 11 12 13 14
000
FTUS45 KFGZ 102300
TAFPGA
TAF
KPGA 102340Z 1100/1124 28009KT P6SM BKN200
      TEMPO 1101/1103 VRB10G20KT P6SM -TSRA BKN070CB
     FM110300 26012KT P6SM SCT080 BKN110
     FM110800 VRB06KT P6SM FEW080 SCT120
     FM112000 29008KT P6SM SCT090=

USA.gov is the U.S. government's official web portal to all federal, state and local government web resources and services.